Time;durP1;ratioP1;P1;durP2;ratioP2;P2;SDS_P1;SDS_P2;PMS_P1;PMS_P2;Temp;Humidity;BMP_temperature;BMP_pressure;BME280_temperature;BME280_humidity;BME280_pressure;Samples;Min_cycle;Max_cycle;Signal;HPM_P1;HPM_P2
2022/07/20 00:00:37;;;;;;;4.13;1.23;;;18.80;81.80;;;;;;4215699;28;20147;-71
2022/07/20 00:02:39;;;;;;;4.20;1.23;;;18.80;81.70;;;;;;4229035;28;20031;-73
2022/07/20 00:04:40;;;;;;;1.75;1.10;;;18.80;81.70;;;;;;4229124;28;20548;-71
2022/07/20 00:06:41;;;;;;;2.75;0.95;;;18.90;81.80;;;;;;4228652;27;20100;-71
2022/07/20 00:11:21;;;;;;;2.00;1.20;;;18.90;81.70;;;;;;4211301;28;20036;-71
2022/07/20 00:13:23;;;;;;;2.35;1.20;;;18.80;81.60;;;;;;4195618;28;20052;-72
2022/07/20 00:15:24;;;;;;;3.42;1.20;;;18.80;81.70;;;;;;4209915;28;20427;-74
2022/07/20 00:17:26;;;;;;;1.67;1.00;;;18.80;81.90;;;;;;4225594;28;20448;-71
2022/07/20 00:19:27;;;;;;;1.83;0.90;;;18.70;82.00;;;;;;4211576;28;20074;-72
2022/07/20 00:21:28;;;;;;;4.53;1.15;;;18.70;82.20;;;;;;4212753;28;20036;-72
2022/07/20 00:23:29;;;;;;;4.30;1.25;;;18.70;82.60;;;;;;4228217;28;20032;-71
2022/07/20 00:25:30;;;;;;;3.58;1.20;;;18.60;82.70;;;;;;4229056;28;20065;-74
2022/07/20 00:27:31;;;;;;;2.85;1.50;;;18.50;82.70;;;;;;4211958;28;20044;-72
2022/07/20 00:29:33;;;;;;;1.98;1.38;;;18.40;83.10;;;;;;4214761;28;20039;-73
2022/07/20 00:31:34;;;;;;;3.85;1.25;;;18.40;83.30;;;;;;4227839;28;20159;-71
2022/07/20 00:33:36;;;;;;;1.23;1.13;;;18.30;83.50;;;;;;4228706;28;20040;-72
2022/07/20 00:35:37;;;;;;;3.30;1.25;;;18.30;83.60;;;;;;4227790;28;20529;-72
2022/07/20 00:37:38;;;;;;;3.78;1.08;;;18.20;83.90;;;;;;4216049;28;20517;-72
2022/07/20 00:39:39;;;;;;;3.58;1.13;;;18.10;84.20;;;;;;4211786;28;20028;-71
2022/07/20 00:41:41;;;;;;;2.80;1.45;;;18.10;84.50;;;;;;4211649;28;20036;-72
2022/07/20 00:44:06;;;;;;;2.80;0.90;;;18.10;84.40;;;;;;4211683;28;20549;-72
2022/07/20 00:46:07;;;;;;;1.83;1.00;;;18.10;85.40;;;;;;4211388;28;20036;-72
2022/07/20 00:48:09;;;;;;;4.40;1.20;;;18.10;84.50;;;;;;4211262;28;20024;-72
2022/07/20 00:50:10;;;;;;;3.40;1.45;;;18.00;84.60;;;;;;4210020;28;20036;-71
2022/07/20 00:52:11;;;;;;;3.35;1.17;;;18.00;84.80;;;;;;4211514;28;20040;-73
2022/07/20 00:54:13;;;;;;;2.00;1.00;;;18.00;84.80;;;;;;4218642;28;20083;-70
2022/07/20 00:56:16;;;;;;;2.45;1.13;;;17.90;84.90;;;;;;4228402;28;20097;-71
2022/07/20 00:58:18;;;;;;;2.08;0.70;;;17.90;85.00;;;;;;4227602;28;20558;-73
2022/07/20 01:00:19;;;;;;;2.15;1.45;;;17.90;85.10;;;;;;4229103;28;20031;-72
2022/07/20 01:02:20;;;;;;;2.03;1.13;;;17.90;85.20;;;;;;4227363;28;20031;-71
2022/07/20 01:04:22;;;;;;;3.28;1.05;;;17.80;85.60;;;;;;4228491;28;20043;-73
2022/07/20 01:06:23;;;;;;;1.88;1.20;;;17.80;85.50;;;;;;4227697;28;20023;-72
2022/07/20 01:08:26;;;;;;;1.88;0.95;;;17.80;85.60;;;;;;4226212;28;20089;-73
2022/07/20 01:10:28;;;;;;;2.05;1.05;;;17.80;85.50;;;;;;4228090;28;20027;-72
2022/07/20 01:12:29;;;;;;;2.53;1.23;;;17.70;85.50;;;;;;4226073;28;20055;-73
2022/07/20 01:14:30;;;;;;;3.58;1.08;;;17.70;85.60;;;;;;4227709;28;20088;-72
2022/07/20 01:16:31;;;;;;;3.13;0.90;;;17.70;85.60;;;;;;4227959;28;20024;-72
2022/07/20 01:18:32;;;;;;;2.75;1.00;;;17.70;85.60;;;;;;4225806;28;20096;-72
2022/07/20 01:20:36;;;;;;;6.40;1.42;;;17.70;85.50;;;;;;4227843;28;20081;-73
2022/07/20 01:22:37;;;;;;;3.88;1.15;;;17.70;85.50;;;;;;4225970;28;20612;-73
2022/07/20 01:24:38;;;;;;;1.10;1.00;;;17.70;85.60;;;;;;4227498;28;20031;-71
2022/07/20 01:26:41;;;;;;;2.42;1.15;;;17.70;85.60;;;;;;4226193;28;20541;-71
2022/07/20 01:28:42;;;;;;;5.20;1.15;;;17.60;85.70;;;;;;4227576;28;20127;-71
2022/07/20 01:30:43;;;;;;;3.78;1.02;;;17.70;85.80;;;;;;4221177;28;20113;-71
2022/07/20 01:32:44;;;;;;;3.83;1.08;;;17.70;85.80;;;;;;4209151;28;20094;-72
2022/07/20 01:34:45;;;;;;;2.28;0.90;;;17.60;85.70;;;;;;4211058;28;20035;-71
2022/07/20 01:36:47;;;;;;;2.95;1.00;;;17.60;85.60;;;;;;4210142;28;20036;-71
2022/07/20 01:38:48;;;;;;;0.88;0.88;;;17.60;85.80;;;;;;4211198;28;20028;-71
2022/07/20 01:40:49;;;;;;;1.90;0.90;;;17.60;85.90;;;;;;4210247;28;20498;-73
2022/07/20 01:42:50;;;;;;;2.17;1.10;;;17.60;86.00;;;;;;4210988;28;20423;-72
2022/07/20 01:44:51;;;;;;;1.92;1.10;;;17.50;86.00;;;;;;4210205;28;20457;-70
2022/07/20 01:46:52;;;;;;;4.50;1.30;;;17.60;86.40;;;;;;4211604;28;20433;-72
2022/07/20 01:48:54;;;;;;;2.50;1.15;;;17.50;86.50;;;;;;4215068;28;20433;-72
2022/07/20 01:50:55;;;;;;;4.45;1.88;;;17.50;86.50;;;;;;4227180;28;20019;-72
2022/07/20 01:52:56;;;;;;;4.45;1.27;;;17.50;86.70;;;;;;4227299;28;20100;-71
2022/07/20 01:54:57;;;;;;;3.67;1.83;;;17.40;86.60;;;;;;4227028;28;20032;-71
2022/07/20 01:56:59;;;;;;;2.75;1.35;;;17.40;86.90;;;;;;4227515;28;20031;-72
2022/07/20 01:59:00;;;;;;;3.97;1.13;;;17.40;87.10;;;;;;4226995;28;20061;-70
2022/07/20 02:01:01;;;;;;;2.95;1.23;;;17.30;87.40;;;;;;4227477;28;20036;-73
2022/07/20 02:03:02;;;;;;;3.45;1.17;;;17.30;87.40;;;;;;4226631;28;20035;-71
2022/07/20 02:05:04;;;;;;;3.42;1.17;;;17.20;87.60;;;;;;4227096;28;20035;-70
2022/07/20 02:07:05;;;;;;;1.25;0.98;;;17.20;87.90;;;;;;4226501;28;20056;-72
2022/07/20 02:09:06;;;;;;;8.80;1.40;;;17.20;87.90;;;;;;4227441;28;20050;-71
2022/07/20 02:11:07;;;;;;;2.38;1.13;;;17.20;88.10;;;;;;4226765;28;20020;-72
2022/07/20 02:13:09;;;;;;;1.85;1.20;;;17.20;88.10;;;;;;4226678;28;20073;-72
2022/07/20 02:16:14;;;;;;;2.03;1.05;;;17.20;88.20;;;;;;4226902;28;20035;-72
2022/07/20 02:17:33;;;;;;;3.70;1.13;;;17.20;88.20;;;;;;4213082;28;20515;-72
2022/07/20 02:19:34;;;;;;;3.03;0.98;;;17.20;88.30;;;;;;4209863;28;20035;-72
2022/07/20 02:21:36;;;;;;;2.25;1.15;;;17.20;88.20;;;;;;4210164;28;20108;-71
2022/07/20 02:23:37;;;;;;;2.08;1.08;;;17.10;88.30;;;;;;4210201;28;20438;-71
2022/07/20 02:25:38;;;;;;;2.78;1.08;;;17.10;88.30;;;;;;4210001;28;20031;-70
2022/07/20 02:27:39;;;;;;;4.53;1.20;;;17.10;88.50;;;;;;4210019;28;20032;-71
2022/07/20 02:29:41;;;;;;;1.55;1.00;;;17.10;88.50;;;;;;4210116;28;20074;-71
2022/07/20 02:31:42;;;;;;;5.43;1.20;;;17.10;88.50;;;;;;4210371;28;20081;-71
2022/07/20 02:33:43;;;;;;;3.75;2.08;;;17.10;88.60;;;;;;4226288;28;20040;-71
2022/07/20 02:35:45;;;;;;;4.40;1.42;;;17.00;88.60;;;;;;4226920;28;20039;-72
2022/07/20 02:37:46;;;;;;;2.85;1.10;;;17.00;88.90;;;;;;4225547;28;20031;-72
2022/07/20 02:39:47;;;;;;;3.00;1.08;;;17.00;89.10;;;;;;4227067;28;20043;-72
2022/07/20 02:41:48;;;;;;;1.95;1.05;;;16.90;89.10;;;;;;4225914;28;20027;-71
2022/07/20 02:43:49;;;;;;;2.45;1.20;;;16.90;89.20;;;;;;4226548;28;20123;-74
2022/07/20 02:45:50;;;;;;;3.50;1.38;;;16.90;89.60;;;;;;4226067;28;20096;-72
2022/07/20 02:47:51;;;;;;;2.88;1.05;;;16.90;89.70;;;;;;4226923;28;20024;-72
2022/07/20 02:49:53;;;;;;;4.28;1.20;;;16.90;89.60;;;;;;4225689;28;20080;-71
2022/07/20 02:51:54;;;;;;;3.35;1.13;;;16.90;89.60;;;;;;4226692;28;20044;-71
2022/07/20 02:53:55;;;;;;;3.25;1.98;;;17.00;89.80;;;;;;4226302;28;20096;-70
2022/07/20 02:55:56;;;;;;;3.88;1.50;;;17.00;89.50;;;;;;4208338;28;20546;-71
2022/07/20 02:57:57;;;;;;;3.42;1.20;;;17.00;89.40;;;;;;4226468;28;20036;-71
2022/07/20 02:59:59;;;;;;;1.45;0.98;;;17.10;89.20;;;;;;4219895;28;20032;-71
2022/07/20 03:02:00;;;;;;;1.92;1.50;;;17.10;89.10;;;;;;4208725;28;20032;-72
2022/07/20 03:04:01;;;;;;;1.80;1.05;;;17.20;89.00;;;;;;4209385;28;20081;-71
2022/07/20 03:06:02;;;;;;;3.22;1.33;;;17.20;88.70;;;;;;4209780;28;20040;-71
2022/07/20 03:08:07;;;;;;;4.78;1.25;;;17.30;88.60;;;;;;4207639;28;20093;-71
2022/07/20 03:10:09;;;;;;;1.15;1.05;;;17.50;88.50;;;;;;4209943;28;20043;-72
2022/07/20 03:12:11;;;;;;;3.10;1.15;;;17.50;88.10;;;;;;4209204;28;20542;-72
2022/07/20 03:14:12;;;;;;;4.22;1.63;;;17.60;87.90;;;;;;4213220;28;20028;-74
2022/07/20 03:16:13;;;;;;;2.78;1.20;;;17.70;87.60;;;;;;4212411;28;20028;-72
2022/07/20 03:18:14;;;;;;;2.17;1.50;;;17.90;87.20;;;;;;4213350;28;20097;-72
2022/07/20 03:20:26;;;;;;;3.20;1.20;;;18.00;87.40;;;;;;4212473;28;20100;-72
2022/07/20 03:22:27;;;;;;;4.32;1.30;;;18.20;86.60;;;;;;4213181;28;20788;-73
2022/07/20 03:24:28;;;;;;;1.45;1.13;;;18.30;86.10;;;;;;4212408;28;20036;-71
2022/07/20 03:26:29;;;;;;;2.83;1.20;;;18.50;85.70;;;;;;4212723;28;20044;-71
2022/07/20 03:28:30;;;;;;;1.83;1.13;;;18.70;85.20;;;;;;4226867;28;20032;-72
2022/07/20 03:30:31;;;;;;;2.00;1.08;;;18.80;84.70;;;;;;4228177;28;20432;-72
2022/07/20 03:32:33;;;;;;;2.03;1.00;;;18.90;84.30;;;;;;4223670;28;20040;-70
2022/07/20 03:34:34;;;;;;;4.07;1.00;;;19.10;84.00;;;;;;4212748;28;20475;-72
2022/07/20 03:36:35;;;;;;;2.88;1.10;;;19.10;83.80;;;;;;4211148;28;20085;-69
2022/07/20 03:38:36;;;;;;;2.70;1.27;;;19.20;83.50;;;;;;4212383;28;20048;-72
2022/07/20 03:40:38;;;;;;;4.57;0.90;;;19.30;83.30;;;;;;4212457;28;20044;-70
2022/07/20 03:42:39;;;;;;;3.10;0.90;;;19.60;83.00;;;;;;4212175;28;20036;-72
2022/07/20 03:44:40;;;;;;;3.15;1.15;;;19.80;82.50;;;;;;4212680;28;20020;-72
2022/07/20 03:46:42;;;;;;;2.42;1.15;;;20.00;81.80;;;;;;4211758;28;20497;-72
2022/07/20 03:48:44;;;;;;;2.10;1.40;;;20.20;81.50;;;;;;4212675;28;20077;-72
2022/07/20 03:50:46;;;;;;;2.58;1.10;;;20.40;81.20;;;;;;4210311;28;20053;-72
2022/07/20 03:52:47;;;;;;;3.78;1.75;;;20.60;80.40;;;;;;4216373;28;20163;-70
2022/07/20 03:54:48;;;;;;;7.03;1.48;;;20.80;80.10;;;;;;4218215;27;20089;-70
2022/07/20 03:56:49;;;;;;;2.53;1.00;;;21.20;79.40;;;;;;4213284;28;20077;-71
2022/07/20 03:58:51;;;;;;;2.88;1.05;;;21.50;78.50;;;;;;4222600;28;20353;-72
2022/07/20 04:00:52;;;;;;;2.92;1.10;;;21.80;77.80;;;;;;4212538;28;20148;-71
2022/07/20 04:02:53;;;;;;;2.28;0.95;;;22.10;77.40;;;;;;4211252;28;20032;-71
2022/07/20 04:04:54;;;;;;;2.08;1.20;;;22.30;76.90;;;;;;4210386;28;20947;-76
2022/07/20 04:06:56;;;;;;;1.77;1.10;;;22.60;76.10;;;;;;4213371;27;20032;-72
2022/07/20 04:08:57;;;;;;;3.97;1.80;;;22.90;75.70;;;;;;4212156;28;20035;-67
2022/07/20 04:10:58;;;;;;;3.40;0.98;;;23.10;74.90;;;;;;4219050;28;20489;-69
2022/07/20 04:12:59;;;;;;;4.40;1.25;;;23.40;74.40;;;;;;4218183;28;20073;-71
2022/07/20 04:15:00;;;;;;;3.22;1.08;;;23.70;73.80;;;;;;4218836;28;20044;-73
2022/07/20 04:17:02;;;;;;;6.45;1.10;;;23.90;73.20;;;;;;4209397;28;20537;-71
2022/07/20 04:19:03;;;;;;;8.35;1.73;;;24.40;72.50;;;;;;4210328;28;20048;-71
2022/07/20 04:21:05;;;;;;;2.83;1.17;;;25.00;71.50;;;;;;4212799;28;20365;-69
2022/07/20 04:23:06;;;;;;;3.67;1.40;;;25.20;70.50;;;;;;4218277;28;20564;-69
2022/07/20 04:25:07;;;;;;;3.83;1.42;;;25.30;70.40;;;;;;4211717;28;20085;-68
2022/07/20 04:27:08;;;;;;;8.15;1.60;;;25.50;70.10;;;;;;4215001;28;20028;-70
2022/07/20 04:29:09;;;;;;;2.70;0.95;;;25.90;69.50;;;;;;4211338;28;20080;-71
2022/07/20 04:31:11;;;;;;;2.25;1.00;;;26.20;68.70;;;;;;4218741;28;20036;-67
2022/07/20 04:33:12;;;;;;;1.50;1.10;;;26.50;68.20;;;;;;4218247;28;20097;-71
2022/07/20 04:35:13;;;;;;;1.05;0.93;;;27.00;67.60;;;;;;4210553;28;20630;-68
2022/07/20 04:37:14;;;;;;;5.88;1.00;;;27.30;66.80;;;;;;4217341;28;20044;-67
2022/07/20 04:39:15;;;;;;;1.63;0.80;;;27.40;66.60;;;;;;4213575;28;20136;-70
2022/07/20 04:41:17;;;;;;;3.20;0.95;;;27.70;66.20;;;;;;4213153;28;20036;-68
2022/07/20 04:43:18;;;;;;;4.93;1.35;;;27.90;65.50;;;;;;4217639;28;20043;-66
2022/07/20 04:45:20;;;;;;;6.03;1.30;;;27.50;65.20;;;;;;4218816;28;20047;-69
2022/07/20 04:47:21;;;;;;;3.25;1.10;;;26.90;65.60;;;;;;4214489;28;20036;-71
2022/07/20 04:49:22;;;;;;;1.65;0.77;;;27.10;65.80;;;;;;4212210;28;20043;-67
2022/07/20 04:51:24;;;;;;;3.65;1.25;;;27.30;65.40;;;;;;4209465;28;20024;-69
2022/07/20 04:53:25;;;;;;;1.73;0.85;;;27.80;64.90;;;;;;4216822;28;20044;-67
2022/07/20 04:55:26;;;;;;;4.32;1.10;;;28.10;64.40;;;;;;4213701;28;20047;-67
2022/07/20 04:57:27;;;;;;;3.70;1.30;;;28.20;64.00;;;;;;4209652;28;20024;-69
2022/07/20 04:59:29;;;;;;;2.65;1.00;;;28.60;63.80;;;;;;4209317;28;20114;-68
2022/07/20 05:01:30;;;;;;;3.15;1.00;;;28.90;63.20;;;;;;4210280;28;20097;-74
2022/07/20 05:03:32;;;;;;;3.65;1.30;;;28.60;63.00;;;;;;4215877;28;20101;-72
2022/07/20 05:05:34;;;;;;;1.30;0.90;;;28.50;63.00;;;;;;4213324;28;20445;-70
2022/07/20 05:07:35;;;;;;;4.80;1.00;;;28.70;63.10;;;;;;4211124;28;20043;-65
2022/07/20 05:09:36;;;;;;;4.03;0.90;;;29.00;62.70;;;;;;4219021;28;20981;-69
2022/07/20 05:11:38;;;;;;;4.90;0.88;;;29.10;62.50;;;;;;4212003;28;20024;-67
2022/07/20 05:13:40;;;;;;;5.55;1.50;;;29.10;62.40;;;;;;4210624;28;20040;-68
2022/07/20 05:15:41;;;;;;;4.43;1.02;;;29.20;62.20;;;;;;4211181;28;20089;-68
2022/07/20 05:17:42;;;;;;;5.93;0.98;;;29.40;62.60;;;;;;4210371;28;20036;-68
2022/07/20 05:19:43;;;;;;;3.40;1.10;;;29.60;62.10;;;;;;4210635;28;20040;-67
2022/07/20 05:21:44;;;;;;;4.43;1.42;;;29.80;61.60;;;;;;4209417;28;20488;-66
2022/07/20 05:23:45;;;;;;;5.43;1.30;;;30.30;61.20;;;;;;4211282;28;20077;-70
2022/07/20 05:25:49;;;;;;;4.68;0.93;;;30.80;60.70;;;;;;4210140;28;20583;-72
2022/07/20 05:27:50;;;;;;;3.55;1.00;;;31.00;59.90;;;;;;4210715;28;20020;-71
2022/07/20 05:29:51;;;;;;;3.70;1.05;;;31.30;59.70;;;;;;4210178;28;20081;-70
2022/07/20 05:31:52;;;;;;;2.15;1.00;;;31.50;59.30;;;;;;4210626;28;20106;-68
2022/07/20 05:33:54;;;;;;;3.90;0.90;;;31.70;59.20;;;;;;4210223;28;20036;-70
2022/07/20 05:35:55;;;;;;;2.28;1.08;;;31.80;59.00;;;;;;4209522;28;20081;-71
2022/07/20 05:37:56;;;;;;;3.15;1.00;;;32.00;58.80;;;;;;4210396;28;20546;-69
2022/07/20 05:39:57;;;;;;;3.25;1.52;;;32.00;58.50;;;;;;4208517;28;20078;-69
2022/07/20 05:41:58;;;;;;;2.10;1.02;;;32.10;58.20;;;;;;4210765;28;20082;-70
2022/07/20 05:43:59;;;;;;;1.02;0.95;;;32.30;57.90;;;;;;4209661;28;20101;-69
2022/07/20 05:46:01;;;;;;;6.40;1.13;;;32.50;57.80;;;;;;4210322;28;20032;-72
2022/07/20 05:48:02;;;;;;;8.77;1.10;;;32.40;57.30;;;;;;4209399;28;20492;-70
2022/07/20 05:50:04;;;;;;;4.80;0.90;;;32.40;57.30;;;;;;4210484;28;20381;-69
2022/07/20 05:52:05;;;;;;;3.08;1.35;;;32.30;57.20;;;;;;4209147;28;20043;-70
2022/07/20 05:54:06;;;;;;;1.60;1.05;;;32.50;56.90;;;;;;4210633;28;20089;-70
2022/07/20 05:56:07;;;;;;;2.50;1.08;;;32.80;56.90;;;;;;4209331;28;20085;-70
2022/07/20 05:58:10;;;;;;;7.60;1.40;;;33.00;56.50;;;;;;4210545;28;20468;-71
2022/07/20 06:00:11;;;;;;;4.57;1.30;;;32.70;56.60;;;;;;4209336;28;20072;-69
2022/07/20 06:02:13;;;;;;;2.05;1.13;;;32.50;56.60;;;;;;4210112;28;20090;-70
2022/07/20 06:04:14;;;;;;;6.68;1.20;;;32.40;56.60;;;;;;4209623;28;20548;-70
2022/07/20 06:06:15;;;;;;;1.60;0.82;;;32.60;56.60;;;;;;4210042;28;20450;-69
2022/07/20 06:08:16;;;;;;;3.03;0.60;;;32.70;56.40;;;;;;4209437;28;20105;-75
2022/07/20 06:10:17;;;;;;;3.65;0.95;;;32.60;56.20;;;;;;4209505;28;20040;-70
2022/07/20 06:12:19;;;;;;;5.00;1.63;;;32.70;56.20;;;;;;4209523;28;20039;-74
2022/07/20 06:14:20;;;;;;;9.32;2.15;;;32.30;56.50;;;;;;4209304;28;20056;-74
2022/07/20 06:16:21;;;;;;;6.45;1.50;;;31.40;57.10;;;;;;4209971;28;20070;-69
2022/07/20 06:18:23;;;;;;;4.70;1.38;;;31.00;57.90;;;;;;4209342;28;20499;-69
2022/07/20 06:20:24;;;;;;;2.05;1.13;;;30.90;58.90;;;;;;4210126;28;20085;-70
2022/07/20 06:22:26;;;;;;;2.72;1.10;;;31.20;57.80;;;;;;4209351;28;20024;-70
2022/07/20 06:24:27;;;;;;;9.95;1.77;;;31.70;57.40;;;;;;4210226;28;20070;-70
2022/07/20 06:26:28;;;;;;;12.30;1.70;;;32.30;56.90;;;;;;4209430;28;20024;-70
2022/07/20 06:28:29;;;;;;;8.50;1.17;;;32.80;56.20;;;;;;4209818;28;20032;-69
2022/07/20 06:30:30;;;;;;;9.07;2.47;;;32.90;55.90;;;;;;4209254;28;20043;-74
2022/07/20 06:32:31;;;;;;;7.75;2.35;;;32.80;56.30;;;;;;4210059;28;20073;-69
2022/07/20 06:34:33;;;;;;;9.25;1.80;;;33.20;56.00;;;;;;4208929;28;20040;-75
2022/07/20 06:36:34;;;;;;;6.80;1.10;;;33.80;55.60;;;;;;4209360;28;20021;-70
2022/07/20 06:38:36;;;;;;;4.30;1.88;;;33.70;55.10;;;;;;4209357;28;20622;-67
2022/07/20 06:40:37;;;;;;;7.53;2.28;;;33.40;55.30;;;;;;4209386;28;20054;-71
2022/07/20 06:42:38;;;;;;;3.72;1.48;;;33.30;55.50;;;;;;4209304;28;20044;-69
2022/07/20 06:44:39;;;;;;;11.73;1.40;;;33.30;55.50;;;;;;4208943;28;20407;-69
2022/07/20 06:46:40;;;;;;;6.93;1.80;;;33.40;55.50;;;;;;4209339;28;20073;-69
2022/07/20 06:48:41;;;;;;;12.75;2.00;;;33.60;55.30;;;;;;4208628;28;20059;-70
2022/07/20 06:50:43;;;;;;;14.05;1.60;;;33.90;55.10;;;;;;4209318;28;20032;-70
2022/07/20 06:52:44;;;;;;;6.40;1.60;;;34.40;54.70;;;;;;4208869;28;20028;-69
2022/07/20 06:54:45;;;;;;;12.50;1.98;;;34.60;54.30;;;;;;4209669;28;20133;-71
2022/07/20 06:56:46;;;;;;;9.25;1.55;;;34.40;54.10;;;;;;4208810;28;20024;-69
2022/07/20 06:58:47;;;;;;;11.70;1.45;;;34.40;54.00;;;;;;4209730;28;20122;-69
2022/07/20 07:00:49;;;;;;;10.90;1.77;;;34.30;54.10;;;;;;4209460;28;20398;-69
2022/07/20 07:02:50;;;;;;;9.52;1.88;;;34.30;54.00;;;;;;4209194;28;20059;-69
2022/07/20 07:04:51;;;;;;;6.70;1.77;;;34.30;54.30;;;;;;4208879;28;20036;-69
2022/07/20 07:06:52;;;;;;;13.32;3.38;;;33.90;54.30;;;;;;4209145;28;20040;-71
2022/07/20 07:08:53;;;;;;;26.40;3.60;;;33.60;54.80;;;;;;4209214;28;20101;-69
2022/07/20 07:10:54;;;;;;;16.75;3.00;;;33.50;55.00;;;;;;4209138;28;20095;-69
2022/07/20 07:12:57;;;;;;;13.73;2.30;;;33.00;55.10;;;;;;4207500;28;20050;-69
2022/07/20 07:14:58;;;;;;;13.00;2.03;;;32.30;55.70;;;;;;4208921;28;20052;-74
2022/07/20 07:16:59;;;;;;;16.35;2.60;;;31.70;56.20;;;;;;4209058;28;20028;-70
2022/07/20 07:19:00;;;;;;;12.07;1.85;;;31.30;56.90;;;;;;4208713;28;20032;-68
2022/07/20 07:21:01;;;;;;;3.60;1.15;;;31.60;56.70;;;;;;4209043;28;20501;-74
2022/07/20 07:23:02;;;;;;;6.35;1.27;;;32.20;56.30;;;;;;4208315;28;20442;-69
2022/07/20 07:25:04;;;;;;;11.40;1.83;;;32.70;56.20;;;;;;4209507;28;20036;-69
2022/07/20 07:27:06;;;;;;;12.18;1.98;;;32.70;56.10;;;;;;4208117;28;20040;-69
2022/07/20 07:29:08;;;;;;;13.45;2.20;;;32.70;55.80;;;;;;4209000;28;20484;-69
2022/07/20 07:31:09;;;;;;;11.35;1.83;;;33.00;55.80;;;;;;4209084;28;20093;-72
2022/07/20 07:33:10;;;;;;;12.77;2.10;;;32.90;55.50;;;;;;4209037;28;20465;-70
2022/07/20 07:35:11;;;;;;;7.10;1.63;;;32.70;55.70;;;;;;4208219;28;20085;-68
2022/07/20 07:37:13;;;;;;;11.57;2.17;;;32.90;55.90;;;;;;4208891;28;20029;-71
2022/07/20 07:39:14;;;;;;;7.22;1.52;;;32.90;55.90;;;;;;4208657;28;20153;-70
2022/07/20 07:41:15;;;;;;;4.82;1.55;;;32.80;56.00;;;;;;4209181;28;20036;-70
2022/07/20 07:43:16;;;;;;;13.27;1.58;;;32.70;55.90;;;;;;4209087;28;20077;-71
2022/07/20 07:45:17;;;;;;;13.00;2.33;;;31.80;56.20;;;;;;4207427;28;20036;-70
2022/07/20 07:47:18;;;;;;;14.38;1.92;;;30.80;57.30;;;;;;4209791;28;20036;-72
2022/07/20 07:49:19;;;;;;;5.43;1.70;;;30.00;58.20;;;;;;4207797;28;20082;-73
2022/07/20 07:51:21;;;;;;;8.88;1.15;;;29.50;58.70;;;;;;4209359;28;20116;-70
2022/07/20 07:53:22;;;;;;;6.38;1.75;;;29.30;58.70;;;;;;4207696;28;20036;-70
2022/07/20 07:55:23;;;;;;;5.78;1.20;;;29.50;58.90;;;;;;4209217;28;20085;-70
2022/07/20 07:57:24;;;;;;;3.60;1.25;;;29.60;58.70;;;;;;4208065;28;20024;-71
2022/07/20 07:59:26;;;;;;;9.57;1.48;;;29.50;58.60;;;;;;4210612;28;20370;-71
2022/07/20 08:01:27;;;;;;;4.78;1.27;;;29.30;58.80;;;;;;4211683;28;20036;-70
2022/07/20 08:03:28;;;;;;;6.15;1.55;;;29.40;59.20;;;;;;4212017;28;20073;-70
2022/07/20 08:05:29;;;;;;;9.85;1.70;;;29.10;59.60;;;;;;4211052;28;20442;-70
2022/07/20 08:07:35;;;;;;;10.85;1.23;;;29.10;59.80;;;;;;4211720;28;20040;-70
2022/07/20 08:09:37;;;;;;;7.57;1.70;;;29.20;59.60;;;;;;4211354;28;20122;-69
2022/07/20 08:11:38;;;;;;;4.28;1.40;;;29.30;59.40;;;;;;4211157;28;20039;-70
2022/07/20 08:13:39;;;;;;;10.13;1.85;;;29.50;59.50;;;;;;4211251;28;20027;-69
2022/07/20 08:15:40;;;;;;;5.63;1.83;;;29.80;59.40;;;;;;4211423;28;20035;-70
2022/07/20 08:17:46;;;;;;;7.57;2.13;;;30.10;58.80;;;;;;4211607;28;20033;-69
2022/07/20 08:19:47;;;;;;;2.05;0.90;;;30.30;58.40;;;;;;4210959;28;20098;-71
2022/07/20 08:21:48;;;;;;;4.38;1.30;;;30.60;57.70;;;;;;4211705;28;20057;-72
2022/07/20 08:23:49;;;;;;;15.30;2.00;;;30.80;57.50;;;;;;4210814;28;20546;-70
2022/07/20 08:25:50;;;;;;;8.95;1.70;;;30.60;57.80;;;;;;4211762;28;20426;-70
2022/07/20 08:27:52;;;;;;;6.28;1.63;;;30.50;58.40;;;;;;4210479;28;20179;-70
2022/07/20 08:29:58;;;;;;;6.10;0.93;;;30.70;58.70;;;;;;4211805;28;20032;-69
2022/07/20 08:31:59;;;;;;;4.13;1.30;;;31.10;58.30;;;;;;4210988;28;20085;-69
2022/07/20 08:34:00;;;;;;;1.85;0.85;;;31.20;57.80;;;;;;4211465;28;20097;-69
2022/07/20 08:36:02;;;;;;;2.38;1.05;;;31.20;57.50;;;;;;4210866;28;20086;-68
2022/07/20 08:38:04;;;;;;;3.53;1.50;;;30.90;57.40;;;;;;4211167;28;20082;-70
2022/07/20 08:40:06;;;;;;;1.42;0.88;;;30.70;57.70;;;;;;4210848;28;20081;-74
2022/07/20 08:42:08;;;;;;;5.55;1.67;;;30.40;57.40;;;;;;4211151;28;20040;-69
2022/07/20 08:44:10;;;;;;;3.35;1.27;;;30.60;57.60;;;;;;4210933;28;20032;-70
2022/07/20 08:46:12;;;;;;;2.78;1.10;;;30.70;57.30;;;;;;4210780;28;20518;-70
2022/07/20 08:48:18;;;;;;;3.70;1.48;;;30.90;57.40;;;;;;4211178;28;20041;-70
2022/07/20 08:50:25;;;;;;;10.75;2.25;;;31.00;57.70;;;;;;4210757;28;20530;-70
2022/07/20 08:52:26;;;;;;;4.40;1.20;;;31.00;57.20;;;;;;4210935;28;20073;-71
2022/07/20 08:54:27;;;;;;;6.13;1.33;;;30.90;57.40;;;;;;4210744;28;20438;-71
2022/07/20 08:56:28;;;;;;;4.82;2.03;;;30.70;57.20;;;;;;4211087;28;20045;-71
2022/07/20 08:58:30;;;;;;;17.50;2.58;;;30.30;57.60;;;;;;4208386;28;20512;-69
2022/07/20 09:00:31;;;;;;;5.47;1.45;;;30.20;57.60;;;;;;4210898;28;20105;-69
2022/07/20 09:02:47;;;;;;;7.85;2.03;;;30.00;57.70;;;;;;4210176;28;20036;-69
2022/07/20 09:04:48;;;;;;;3.90;1.00;;;30.00;57.70;;;;;;4210570;28;20089;-72
2022/07/20 09:06:50;;;;;;;14.32;2.75;;;30.30;58.10;;;;;;4209587;28;20028;-71
2022/07/20 09:09:05;;;;;;;7.53;2.28;;;30.30;57.30;;;;;;4210723;28;20078;-69
2022/07/20 09:11:08;;;;;;;6.75;1.38;;;30.40;57.30;;;;;;4208815;28;20028;-69
2022/07/20 09:13:18;;;;;;;1.55;1.30;;;30.70;57.30;;;;;;4210620;28;20082;-70
2022/07/20 09:15:27;;;;;;;9.93;1.98;;;30.30;56.60;;;;;;4209582;28;20081;-70
2022/07/20 09:17:28;;;;;;;3.40;1.42;;;30.20;56.50;;;;;;4211169;28;20032;-69
2022/07/20 09:19:49;;;;;;;4.97;1.80;;;29.80;57.00;;;;;;4209571;28;20073;-70
2022/07/20 09:21:51;;;;;;;19.85;3.40;;;29.70;57.50;;;;;;4210758;28;20040;-71
2022/07/20 09:23:54;;;;;;;10.93;2.05;;;29.80;57.70;;;;;;4209953;28;20319;-69
2022/07/20 09:26:07;;;;;;;9.93;2.38;;;30.00;57.70;;;;;;4210768;28;20028;-70
2022/07/20 09:28:08;;;;;;;18.58;2.88;;;29.90;57.60;;;;;;4209609;28;20484;-72
2022/07/20 09:30:16;;;;;;;2.47;1.75;;;30.00;57.70;;;;;;4208994;28;20040;-69
2022/07/20 09:32:17;;;;;;;4.97;1.83;;;30.10;57.50;;;;;;4210180;28;20070;-69
2022/07/20 09:34:23;;;;;;;1.20;1.05;;;30.30;57.40;;;;;;4209657;28;20036;-70
2022/07/20 09:36:30;;;;;;;8.40;1.38;;;30.50;56.90;;;;;;4209805;28;20097;-70
2022/07/20 09:38:34;;;;;;;9.50;2.10;;;30.70;57.10;;;;;;4210525;28;20105;-70
2022/07/20 09:40:45;;;;;;;3.08;1.40;;;30.90;57.10;;;;;;4209878;28;20028;-70
2022/07/20 09:42:47;;;;;;;5.00;1.70;;;30.90;56.90;;;;;;4210068;28;20036;-70
2022/07/20 09:44:48;;;;;;;7.63;2.00;;;30.80;56.70;;;;;;4209592;28;20103;-71
2022/07/20 09:46:49;;;;;;;2.10;1.75;;;30.50;56.90;;;;;;4210182;28;20101;-70
2022/07/20 09:48:56;;;;;;;4.03;1.10;;;29.90;57.30;;;;;;4208720;28;20165;-70
2022/07/20 09:50:57;;;;;;;3.80;1.70;;;29.80;57.80;;;;;;4210102;28;20077;-70
2022/07/20 09:52:58;;;;;;;2.40;1.25;;;29.80;57.50;;;;;;4210047;28;20036;-71
2022/07/20 09:55:00;;;;;;;4.10;1.48;;;29.90;57.40;;;;;;4209773;28;20153;-70
2022/07/20 09:57:02;;;;;;;1.45;1.27;;;30.10;57.20;;;;;;4209910;28;20097;-69
2022/07/20 09:59:07;;;;;;;5.65;1.30;;;30.30;57.10;;;;;;4209583;28;20028;-70
2022/07/20 10:01:09;;;;;;;2.55;1.10;;;30.30;56.70;;;;;;4210345;28;20480;-71
2022/07/20 10:03:12;;;;;;;1.63;1.30;;;30.40;56.70;;;;;;4209514;28;20440;-69
2022/07/20 10:05:16;;;;;;;3.53;1.33;;;30.60;56.60;;;;;;4209871;28;20044;-72
2022/07/20 10:07:18;;;;;;;1.88;1.35;;;30.70;57.50;;;;;;4209296;28;20044;-70
2022/07/20 10:09:19;;;;;;;3.08;1.33;;;30.80;57.10;;;;;;4209834;28;20093;-70
2022/07/20 10:11:23;;;;;;;7.25;2.05;;;30.60;56.90;;;;;;4209119;28;20032;-70
2022/07/20 10:13:24;;;;;;;7.30;1.63;;;30.10;56.90;;;;;;4210239;28;20024;-70
2022/07/20 10:15:46;;;;;;;7.35;1.70;;;30.10;57.00;;;;;;4208880;28;20044;-70
2022/07/20 10:17:48;;;;;;;4.40;2.33;;;30.30;56.80;;;;;;4210275;28;20024;-70
2022/07/20 10:19:49;;;;;;;5.65;1.60;;;30.30;56.90;;;;;;4207651;28;20086;-70
2022/07/20 10:21:52;;;;;;;2.90;2.05;;;30.30;57.00;;;;;;4209768;28;20373;-69
2022/07/20 10:24:20;;;;;;;3.88;1.27;;;30.30;56.80;;;;;;4208799;28;20028;-72
2022/07/20 10:26:25;;;;;;;2.40;1.00;;;30.40;56.80;;;;;;4209320;28;20117;-70
2022/07/20 10:28:36;;;;;;;2.45;1.10;;;30.30;56.80;;;;;;4208705;28;20040;-70
2022/07/20 10:30:52;;;;;;;3.70;1.45;;;30.20;57.20;;;;;;4209934;28;20537;-69
2022/07/20 10:32:58;;;;;;;4.68;1.70;;;30.20;57.80;;;;;;4209386;28;20077;-71
2022/07/20 10:35:23;;;;;;;4.68;1.40;;;30.40;57.60;;;;;;4209622;28;20057;-69
2022/07/20 10:37:27;;;;;;;3.63;1.45;;;30.50;57.40;;;;;;4208921;28;20113;-70